Terminal Aerodrome Forecast
Issued by NWS Wichita, KS

Home | Current Version | Previous Version | Text Only | Print | Product List | Glossary On
Versions: 1 2 3 4 5 6 7 8 9 10 11 12 13 14 15 16 17 18 19 20 21 22 23 24 25 26 27 28 29 30 31
000
FTUS43 KICT 181733
TAFICT
TAF
KICT 181733Z 1818/1918 01004KT 6SM BR OVC006
      TEMPO 1818/1822 3SM BR OVC004
     FM190300 04004KT 3SM BR OVC004
     FM190800 07004KT 1SM BR OVC003
     FM191500 17004KT 3SM BR OVC004=

USA.gov is the U.S. government's official web portal to all federal, state and local government web resources and services.